Cottondale, Florida
Current Conditions -  °F | °C
As of 1:53 PM on Wednesday 28 Jan 2015 (Local Time) from KMAI Reporting Station
Clear Clear  
Wind Chill: 55°   Ceiling: Unl
Heat Index: 55°   Visibility: 10mi
Dew Point: 32°   Wind: 7mph
Humidity: 42%   Direction: 30°NNE
Pressure: 30.24"   Gusts: NA
Location:  30.8°N, 85.38°W
Report Text: KMAI 281953Z AUTO 03006KT 10SM CLR 13/00 A3024 RMK AO2 SLP240 T01280000
Loading
Personal Weather Stations






























Interactive Weather Map New forecast layout! Learn more

10-Day Weather Forecast

Advertisements
Track Severe Weather on mobile